ADDS METAR Data INFO
IDs: Format: Raw Decoded Include TAF

Data at: 0855 UTC 19 Jun 2018

METAR for:TISX (St Croix/Rohlsen Arp, --, VI)
Text:TISX 190801Z AUTO 10012KT 10SM SCT019 27/24 A3001 RMK AO2 T02720244 $
Temperature: 27.2°C ( 81°F)
Dewpoint: 24.4°C ( 76°F) [RH = 85%]
Pressure (altimeter):30.01 inches Hg (1016.3 mb)
Winds:from the E (100 degrees) at 14 MPH (12 knots; 6.2 m/s)
Visibility:10 or more sm (16+ km)
Ceiling:at least 12,000 feet AGL
Clouds: scattered clouds at 1900 feet AGL
QC Flag:automated observation with no human augmentation; SOME DATA ABOVE MAY BE INACCURATE!!!"$" is an indication the sensor requires maintenance.